sensor_id;sensor_type;location;lat;lon;timestamp;P1;durP1;ratioP1;P2;durP2;ratioP2
45932;SDS011;51011;46.790;17.184;2022-08-21T03:27:07;2.55;;;1.42;;
45932;SDS011;51011;46.790;17.184;2022-08-21T03:29:33;1.50;;;1.40;;
45932;SDS011;51011;46.790;17.184;2022-08-21T03:31:59;1.48;;;1.30;;
45932;SDS011;51011;46.790;17.184;2022-08-21T03:34:24;1.45;;;1.33;;
45932;SDS011;51011;46.790;17.184;2022-08-21T03:36:50;1.63;;;1.38;;
45932;SDS011;51011;46.790;17.184;2022-08-21T03:39:16;1.45;;;1.35;;
45932;SDS011;51011;46.790;17.184;2022-08-21T03:41:41;1.60;;;1.50;;
45932;SDS011;51011;46.790;17.184;2022-08-21T03:44:07;1.85;;;1.60;;
45932;SDS011;51011;46.790;17.184;2022-08-21T03:46:33;1.83;;;1.50;;
45932;SDS011;51011;46.790;17.184;2022-08-21T03:48:58;1.60;;;1.42;;
45932;SDS011;51011;46.790;17.184;2022-08-21T03:51:24;3.20;;;1.73;;
45932;SDS011;51011;46.790;17.184;2022-08-21T03:53:50;4.45;;;1.90;;
45932;SDS011;51011;46.790;17.184;2022-08-21T03:56:16;2.47;;;1.80;;
45932;SDS011;51011;46.790;17.184;2022-08-21T03:58:41;2.13;;;1.80;;
45932;SDS011;51011;46.790;17.184;2022-08-21T04:01:07;2.15;;;1.77;;
45932;SDS011;51011;46.790;17.184;2022-08-21T04:03:34;1.98;;;1.80;;
45932;SDS011;51011;46.790;17.184;2022-08-21T04:06:00;3.15;;;2.00;;
45932;SDS011;51011;46.790;17.184;2022-08-21T04:08:26;1.90;;;1.70;;
45932;SDS011;51011;46.790;17.184;2022-08-21T04:10:52;2.85;;;1.77;;
45932;SDS011;51011;46.790;17.184;2022-08-21T04:13:19;2.20;;;1.88;;
45932;SDS011;51011;46.790;17.184;2022-08-21T04:15:45;2.50;;;2.10;;
45932;SDS011;51011;46.790;17.184;2022-08-21T04:18:10;2.22;;;2.00;;
45932;SDS011;51011;46.790;17.184;2022-08-21T04:20:36;2.47;;;1.90;;
45932;SDS011;51011;46.790;17.184;2022-08-21T04:23:02;2.42;;;2.03;;
45932;SDS011;51011;46.790;17.184;2022-08-21T04:25:28;2.55;;;2.13;;
45932;SDS011;51011;46.790;17.184;2022-08-21T04:27:53;3.55;;;2.10;;
45932;SDS011;51011;46.790;17.184;2022-08-21T04:30:19;3.35;;;2.20;;
45932;SDS011;51011;46.790;17.184;2022-08-21T04:32:46;3.80;;;2.30;;
45932;SDS011;51011;46.790;17.184;2022-08-21T04:35:13;3.20;;;2.15;;
45932;SDS011;51011;46.790;17.184;2022-08-21T04:37:41;4.00;;;2.22;;
45932;SDS011;51011;46.790;17.184;2022-08-21T04:40:07;2.65;;;2.33;;
45932;SDS011;51011;46.790;17.184;2022-08-21T04:42:40;2.42;;;2.10;;
45932;SDS011;51011;46.790;17.184;2022-08-21T04:45:07;2.63;;;2.20;;
45932;SDS011;51011;46.790;17.184;2022-08-21T04:47:33;2.70;;;2.25;;
45932;SDS011;51011;46.790;17.184;2022-08-21T04:49:58;2.65;;;2.28;;
45932;SDS011;51011;46.790;17.184;2022-08-21T04:52:24;3.08;;;2.60;;
45932;SDS011;51011;46.790;17.184;2022-08-21T04:54:49;2.80;;;2.47;;
45932;SDS011;51011;46.790;17.184;2022-08-21T04:57:17;2.90;;;2.50;;
45932;SDS011;51011;46.790;17.184;2022-08-21T04:59:44;3.22;;;2.53;;
45932;SDS011;51011;46.790;17.184;2022-08-21T05:02:12;3.70;;;2.75;;
45932;SDS011;51011;46.790;17.184;2022-08-21T05:04:40;3.47;;;3.05;;
45932;SDS011;51011;46.790;17.184;2022-08-21T05:07:10;2.95;;;2.65;;
45932;SDS011;51011;46.790;17.184;2022-08-21T05:09:40;2.97;;;2.67;;
45932;SDS011;51011;46.790;17.184;2022-08-21T05:12:06;3.83;;;2.80;;
45932;SDS011;51011;46.790;17.184;2022-08-21T05:14:32;3.65;;;2.67;;
45932;SDS011;51011;46.790;17.184;2022-08-21T05:16:58;3.38;;;2.75;;
45932;SDS011;51011;46.790;17.184;2022-08-21T05:19:24;3.47;;;2.72;;
45932;SDS011;51011;46.790;17.184;2022-08-21T05:21:50;3.78;;;2.72;;
45932;SDS011;51011;46.790;17.184;2022-08-21T05:24:16;4.32;;;2.90;;
45932;SDS011;51011;46.790;17.184;2022-08-21T05:26:43;2.90;;;2.60;;
45932;SDS011;51011;46.790;17.184;2022-08-21T05:29:09;3.22;;;2.78;;
45932;SDS011;51011;46.790;17.184;2022-08-21T05:31:36;4.38;;;3.00;;
45932;SDS011;51011;46.790;17.184;2022-08-21T05:34:02;2.92;;;2.55;;
45932;SDS011;51011;46.790;17.184;2022-08-21T05:36:27;4.45;;;2.60;;
45932;SDS011;51011;46.790;17.184;2022-08-21T05:38:53;3.53;;;2.72;;
45932;SDS011;51011;46.790;17.184;2022-08-21T05:41:19;3.35;;;2.83;;
45932;SDS011;51011;46.790;17.184;2022-08-21T05:43:44;2.97;;;2.67;;
45932;SDS011;51011;46.790;17.184;2022-08-21T05:46:09;2.92;;;2.42;;
45932;SDS011;51011;46.790;17.184;2022-08-21T05:48:37;4.35;;;2.40;;
45932;SDS011;51011;46.790;17.184;2022-08-21T05:51:04;4.80;;;2.50;;
45932;SDS011;51011;46.790;17.184;2022-08-21T05:53:31;3.55;;;2.60;;
45932;SDS011;51011;46.790;17.184;2022-08-21T05:55:57;4.80;;;2.60;;
45932;SDS011;51011;46.790;17.184;2022-08-21T05:58:22;3.63;;;2.45;;
45932;SDS011;51011;46.790;17.184;2022-08-21T06:00:49;2.85;;;2.42;;
45932;SDS011;51011;46.790;17.184;2022-08-21T06:03:26;2.97;;;2.47;;
45932;SDS011;51011;46.790;17.184;2022-08-21T06:05:53;3.10;;;2.55;;
45932;SDS011;51011;46.790;17.184;2022-08-21T06:08:20;3.33;;;2.40;;
45932;SDS011;51011;46.790;17.184;2022-08-21T06:10:46;4.95;;;2.33;;
45932;SDS011;51011;46.790;17.184;2022-08-21T06:13:13;3.25;;;2.33;;
45932;SDS011;51011;46.790;17.184;2022-08-21T06:15:39;2.60;;;2.20;;
45932;SDS011;51011;46.790;17.184;2022-08-21T06:18:05;3.10;;;2.30;;
45932;SDS011;51011;46.790;17.184;2022-08-21T06:20:31;3.28;;;2.70;;
45932;SDS011;51011;46.790;17.184;2022-08-21T06:22:57;2.45;;;2.25;;
45932;SDS011;51011;46.790;17.184;2022-08-21T06:25:23;3.80;;;2.10;;
45932;SDS011;51011;46.790;17.184;2022-08-21T06:27:49;2.78;;;2.20;;
45932;SDS011;51011;46.790;17.184;2022-08-21T06:30:16;2.88;;;2.08;;
45932;SDS011;51011;46.790;17.184;2022-08-21T06:32:42;2.25;;;1.90;;
45932;SDS011;51011;46.790;17.184;2022-08-21T06:35:07;2.15;;;1.90;;
45932;SDS011;51011;46.790;17.184;2022-08-21T06:37:33;2.13;;;1.85;;
45932;SDS011;51011;46.790;17.184;2022-08-21T06:39:59;2.20;;;1.80;;
45932;SDS011;51011;46.790;17.184;2022-08-21T06:42:25;1.85;;;1.70;;
45932;SDS011;51011;46.790;17.184;2022-08-21T06:44:52;2.05;;;1.77;;
45932;SDS011;51011;46.790;17.184;2022-08-21T06:47:17;2.13;;;1.83;;
45932;SDS011;51011;46.790;17.184;2022-08-21T06:49:43;2.22;;;1.90;;
45932;SDS011;51011;46.790;17.184;2022-08-21T06:52:11;2.22;;;1.85;;
45932;SDS011;51011;46.790;17.184;2022-08-21T06:54:38;1.73;;;1.60;;
45932;SDS011;51011;46.790;17.184;2022-08-21T06:57:04;2.10;;;1.90;;
45932;SDS011;51011;46.790;17.184;2022-08-21T06:59:30;2.67;;;1.80;;
45932;SDS011;51011;46.790;17.184;2022-08-21T07:01:57;1.98;;;1.70;;
45932;SDS011;51011;46.790;17.184;2022-08-21T07:04:25;3.30;;;1.80;;
45932;SDS011;51011;46.790;17.184;2022-08-21T07:06:51;2.55;;;1.80;;
45932;SDS011;51011;46.790;17.184;2022-08-21T07:09:17;3.80;;;1.95;;
45932;SDS011;51011;46.790;17.184;2022-08-21T07:11:43;3.08;;;1.70;;
45932;SDS011;51011;46.790;17.184;2022-08-21T07:14:10;1.83;;;1.63;;
45932;SDS011;51011;46.790;17.184;2022-08-21T07:16:35;2.20;;;1.85;;
45932;SDS011;51011;46.790;17.184;2022-08-21T07:19:01;2.45;;;2.00;;
45932;SDS011;51011;46.790;17.184;2022-08-21T07:21:27;2.05;;;1.60;;
45932;SDS011;51011;46.790;17.184;2022-08-21T07:23:52;2.92;;;1.90;;
45932;SDS011;51011;46.790;17.184;2022-08-21T07:26:19;2.05;;;1.80;;
45932;SDS011;51011;46.790;17.184;2022-08-21T07:28:47;2.80;;;1.90;;
45932;SDS011;51011;46.790;17.184;2022-08-21T07:31:14;1.45;;;1.35;;
45932;SDS011;51011;46.790;17.184;2022-08-21T07:33:41;2.08;;;1.63;;
45932;SDS011;51011;46.790;17.184;2022-08-21T07:36:07;1.85;;;1.45;;
45932;SDS011;51011;46.790;17.184;2022-08-21T07:38:33;2.83;;;1.80;;
45932;SDS011;51011;46.790;17.184;2022-08-21T07:40:59;2.00;;;1.50;;
45932;SDS011;51011;46.790;17.184;2022-08-21T07:43:26;1.98;;;1.60;;
45932;SDS011;51011;46.790;17.184;2022-08-21T07:45:53;1.77;;;1.50;;
45932;SDS011;51011;46.790;17.184;2022-08-21T07:48:19;2.17;;;1.60;;
45932;SDS011;51011;46.790;17.184;2022-08-21T07:50:45;2.67;;;1.60;;
45932;SDS011;51011;46.790;17.184;2022-08-21T07:53:11;2.08;;;1.63;;
45932;SDS011;51011;46.790;17.184;2022-08-21T07:55:37;1.83;;;1.33;;
45932;SDS011;51011;46.790;17.184;2022-08-21T07:58:04;1.52;;;1.30;;
45932;SDS011;51011;46.790;17.184;2022-08-21T08:00:30;2.10;;;1.33;;
45932;SDS011;51011;46.790;17.184;2022-08-21T08:02:56;2.00;;;1.40;;
45932;SDS011;51011;46.790;17.184;2022-08-21T08:05:26;1.67;;;1.48;;
45932;SDS011;51011;46.790;17.184;2022-08-21T08:07:54;1.88;;;1.20;;
45932;SDS011;51011;46.790;17.184;2022-08-21T08:10:20;2.00;;;1.60;;
45932;SDS011;51011;46.790;17.184;2022-08-21T08:12:47;2.88;;;1.45;;
45932;SDS011;51011;46.790;17.184;2022-08-21T08:15:14;2.35;;;1.60;;
45932;SDS011;51011;46.790;17.184;2022-08-21T08:17:41;3.20;;;1.50;;
45932;SDS011;51011;46.790;17.184;2022-08-21T08:20:07;2.10;;;1.60;;
45932;SDS011;51011;46.790;17.184;2022-08-21T08:22:36;1.67;;;1.55;;
45932;SDS011;51011;46.790;17.184;2022-08-21T08:25:05;2.45;;;1.40;;
45932;SDS011;51011;46.790;17.184;2022-08-21T08:27:32;1.90;;;1.50;;
45932;SDS011;51011;46.790;17.184;2022-08-21T08:29:58;1.50;;;1.40;;
45932;SDS011;51011;46.790;17.184;2022-08-21T08:32:23;1.40;;;1.30;;
45932;SDS011;51011;46.790;17.184;2022-08-21T08:34:49;1.70;;;1.50;;
45932;SDS011;51011;46.790;17.184;2022-08-21T08:37:17;2.53;;;1.70;;
45932;SDS011;51011;46.790;17.184;2022-08-21T08:39:44;1.50;;;1.40;;
45932;SDS011;51011;46.790;17.184;2022-08-21T08:42:13;2.20;;;1.75;;
45932;SDS011;51011;46.790;17.184;2022-08-21T08:44:41;1.85;;;1.65;;
45932;SDS011;51011;46.790;17.184;2022-08-21T08:47:08;1.90;;;1.63;;
45932;SDS011;51011;46.790;17.184;2022-08-21T08:52:30;4.63;;;1.70;;
45932;SDS011;51011;46.790;17.184;2022-08-21T08:57:30;2.53;;;1.67;;
45932;SDS011;51011;46.790;17.184;2022-08-21T08:59:58;1.92;;;1.45;;
45932;SDS011;51011;46.790;17.184;2022-08-21T09:02:25;1.48;;;1.38;;
45932;SDS011;51011;46.790;17.184;2022-08-21T09:04:52;1.80;;;1.48;;
45932;SDS011;51011;46.790;17.184;2022-08-21T09:10:17;2.28;;;1.60;;
45932;SDS011;51011;46.790;17.184;2022-08-21T09:12:49;2.75;;;1.70;;
45932;SDS011;51011;46.790;17.184;2022-08-21T09:15:20;1.98;;;1.77;;
45932;SDS011;51011;46.790;17.184;2022-08-21T09:20:25;3.90;;;1.70;;
45932;SDS011;51011;46.790;17.184;2022-08-21T09:26:02;3.67;;;1.80;;
45932;SDS011;51011;46.790;17.184;2022-08-21T09:28:26;3.03;;;1.63;;
45932;SDS011;51011;46.790;17.184;2022-08-21T09:30:54;2.35;;;1.50;;
45932;SDS011;51011;46.790;17.184;2022-08-21T09:33:20;1.80;;;1.70;;
45932;SDS011;51011;46.790;17.184;2022-08-21T09:35:50;2.75;;;2.00;;
45932;SDS011;51011;46.790;17.184;2022-08-21T09:38:24;1.92;;;1.73;;
45932;SDS011;51011;46.790;17.184;2022-08-21T09:40:59;2.30;;;1.80;;
45932;SDS011;51011;46.790;17.184;2022-08-21T09:43:27;2.05;;;1.70;;
45932;SDS011;51011;46.790;17.184;2022-08-21T09:46:03;2.20;;;1.90;;
45932;SDS011;51011;46.790;17.184;2022-08-21T09:48:47;2.92;;;2.20;;
45932;SDS011;51011;46.790;17.184;2022-08-21T09:51:19;2.40;;;1.85;;
45932;SDS011;51011;46.790;17.184;2022-08-21T09:53:53;1.83;;;1.73;;
45932;SDS011;51011;46.790;17.184;2022-08-21T09:56:25;2.22;;;1.88;;
45932;SDS011;51011;46.790;17.184;2022-08-21T09:59:13;1.88;;;1.70;;
45932;SDS011;51011;46.790;17.184;2022-08-21T10:01:46;1.70;;;1.60;;
45932;SDS011;51011;46.790;17.184;2022-08-21T10:04:14;3.78;;;2.25;;
45932;SDS011;51011;46.790;17.184;2022-08-21T10:06:40;2.70;;;2.05;;
45932;SDS011;51011;46.790;17.184;2022-08-21T10:09:07;2.92;;;1.80;;
45932;SDS011;51011;46.790;17.184;2022-08-21T10:11:35;2.92;;;2.03;;
45932;SDS011;51011;46.790;17.184;2022-08-21T10:14:06;2.22;;;1.98;;
45932;SDS011;51011;46.790;17.184;2022-08-21T10:16:55;2.40;;;2.05;;
45932;SDS011;51011;46.790;17.184;2022-08-21T10:25:26;2.55;;;2.20;;
45932;SDS011;51011;46.790;17.184;2022-08-21T12:22:14;2.67;;;2.00;;
45932;SDS011;51011;46.790;17.184;2022-08-21T12:24:45;5.35;;;1.95;;
45932;SDS011;51011;46.790;17.184;2022-08-21T12:29:46;2.03;;;1.80;;
45932;SDS011;51011;46.790;17.184;2022-08-21T12:34:40;2.20;;;2.00;;
45932;SDS011;51011;46.790;17.184;2022-08-21T12:37:25;2.83;;;1.90;;
45932;SDS011;51011;46.790;17.184;2022-08-21T12:40:09;2.75;;;1.77;;
45932;SDS011;51011;46.790;17.184;2022-08-21T12:42:44;1.75;;;1.50;;
45932;SDS011;51011;46.790;17.184;2022-08-21T12:46:00;1.50;;;1.40;;
45932;SDS011;51011;46.790;17.184;2022-08-21T12:51:07;1.40;;;1.30;;
45932;SDS011;51011;46.790;17.184;2022-08-21T12:53:40;1.30;;;1.20;;
45932;SDS011;51011;46.790;17.184;2022-08-21T12:56:11;1.33;;;1.15;;
45932;SDS011;51011;46.790;17.184;2022-08-21T12:58:40;1.20;;;1.10;;
45932;SDS011;51011;46.790;17.184;2022-08-21T13:01:17;1.60;;;1.35;;
45932;SDS011;51011;46.790;17.184;2022-08-21T13:03:46;1.67;;;1.30;;
45932;SDS011;51011;46.790;17.184;2022-08-21T13:06:13;1.73;;;1.05;;
45932;SDS011;51011;46.790;17.184;2022-08-21T13:08:41;1.67;;;1.10;;
45932;SDS011;51011;46.790;17.184;2022-08-21T13:11:08;1.65;;;1.00;;
45932;SDS011;51011;46.790;17.184;2022-08-21T13:13:35;1.10;;;1.00;;
45932;SDS011;51011;46.790;17.184;2022-08-21T13:16:05;1.27;;;1.02;;
45932;SDS011;51011;46.790;17.184;2022-08-21T13:18:32;1.40;;;1.30;;
45932;SDS011;51011;46.790;17.184;2022-08-21T13:21:09;1.88;;;1.08;;
45932;SDS011;51011;46.790;17.184;2022-08-21T13:23:36;1.20;;;1.10;;
45932;SDS011;51011;46.790;17.184;2022-08-21T13:26:11;1.23;;;1.13;;
45932;SDS011;51011;46.790;17.184;2022-08-21T13:28:40;1.35;;;1.25;;
45932;SDS011;51011;46.790;17.184;2022-08-21T13:31:07;1.30;;;1.05;;
45932;SDS011;51011;46.790;17.184;2022-08-21T13:33:35;1.45;;;1.10;;
45932;SDS011;51011;46.790;17.184;2022-08-21T13:36:09;1.75;;;1.20;;
45932;SDS011;51011;46.790;17.184;2022-08-21T13:38:36;1.52;;;0.90;;
45932;SDS011;51011;46.790;17.184;2022-08-21T13:43:46;1.05;;;0.90;;
45932;SDS011;51011;46.790;17.184;2022-08-21T13:46:20;0.90;;;0.90;;
45932;SDS011;51011;46.790;17.184;2022-08-21T13:48:47;1.92;;;1.33;;
45932;SDS011;51011;46.790;17.184;2022-08-21T13:51:16;1.15;;;1.05;;
45932;SDS011;51011;46.790;17.184;2022-08-21T13:56:20;2.40;;;0.98;;
45932;SDS011;51011;46.790;17.184;2022-08-21T13:58:47;1.10;;;1.00;;
45932;SDS011;51011;46.790;17.184;2022-08-21T14:01:32;1.05;;;1.00;;
45932;SDS011;51011;46.790;17.184;2022-08-21T14:04:04;0.90;;;0.90;;
45932;SDS011;51011;46.790;17.184;2022-08-21T14:06:34;2.60;;;0.85;;
45932;SDS011;51011;46.790;17.184;2022-08-21T14:09:07;1.92;;;0.95;;
45932;SDS011;51011;46.790;17.184;2022-08-21T14:14:04;1.10;;;0.98;;
45932;SDS011;51011;46.790;17.184;2022-08-21T14:16:46;1.30;;;1.20;;
45932;SDS011;51011;46.790;17.184;2022-08-21T14:19:26;1.95;;;0.98;;
45932;SDS011;51011;46.790;17.184;2022-08-21T14:22:12;1.10;;;1.00;;
45932;SDS011;51011;46.790;17.184;2022-08-21T14:25:02;2.28;;;1.20;;
45932;SDS011;51011;46.790;17.184;2022-08-21T14:27:32;1.10;;;1.00;;
45932;SDS011;51011;46.790;17.184;2022-08-21T14:30:13;1.63;;;1.10;;
45932;SDS011;51011;46.790;17.184;2022-08-21T14:32:43;2.45;;;0.90;;
45932;SDS011;51011;46.790;17.184;2022-08-21T14:35:09;1.15;;;1.00;;
45932;SDS011;51011;46.790;17.184;2022-08-21T14:37:35;3.60;;;1.10;;
45932;SDS011;51011;46.790;17.184;2022-08-21T14:40:11;1.77;;;1.10;;
45932;SDS011;51011;46.790;17.184;2022-08-21T14:42:37;3.22;;;1.10;;
45932;SDS011;51011;46.790;17.184;2022-08-21T14:45:36;0.95;;;0.85;;
45932;SDS011;51011;46.790;17.184;2022-08-21T14:47:57;1.65;;;0.98;;
45932;SDS011;51011;46.790;17.184;2022-08-21T14:50:23;1.15;;;0.80;;
45932;SDS011;51011;46.790;17.184;2022-08-21T14:52:48;1.25;;;0.80;;
45932;SDS011;51011;46.790;17.184;2022-08-21T14:55:15;2.55;;;0.95;;
45932;SDS011;51011;46.790;17.184;2022-08-21T14:57:43;1.25;;;1.10;;
45932;SDS011;51011;46.790;17.184;2022-08-21T15:00:12;1.40;;;1.08;;
45932;SDS011;51011;46.790;17.184;2022-08-21T15:02:38;2.33;;;0.82;;
45932;SDS011;51011;46.790;17.184;2022-08-21T15:05:04;0.95;;;0.90;;
45932;SDS011;51011;46.790;17.184;2022-08-21T15:07:30;1.23;;;1.00;;
45932;SDS011;51011;46.790;17.184;2022-08-21T15:09:56;1.75;;;0.90;;
45932;SDS011;51011;46.790;17.184;2022-08-21T15:12:22;1.23;;;1.10;;
45932;SDS011;51011;46.790;17.184;2022-08-21T15:14:48;1.10;;;0.82;;
45932;SDS011;51011;46.790;17.184;2022-08-21T15:17:14;1.13;;;1.00;;
45932;SDS011;51011;46.790;17.184;2022-08-21T15:19:39;1.88;;;1.30;;
45932;SDS011;51011;46.790;17.184;2022-08-21T15:22:05;1.40;;;1.30;;
45932;SDS011;51011;46.790;17.184;2022-08-21T15:24:33;2.50;;;1.10;;
45932;SDS011;51011;46.790;17.184;2022-08-21T15:26:59;2.83;;;1.40;;
45932;SDS011;51011;46.790;17.184;2022-08-21T15:29:27;5.20;;;1.30;;
45932;SDS011;51011;46.790;17.184;2022-08-21T15:31:55;1.52;;;1.20;;
45932;SDS011;51011;46.790;17.184;2022-08-21T15:34:24;2.42;;;1.50;;
45932;SDS011;51011;46.790;17.184;2022-08-21T15:36:52;1.80;;;1.40;;
45932;SDS011;51011;46.790;17.184;2022-08-21T15:39:18;1.73;;;1.50;;
45932;SDS011;51011;46.790;17.184;2022-08-21T15:41:43;2.08;;;1.70;;
45932;SDS011;51011;46.790;17.184;2022-08-21T15:44:10;1.88;;;1.60;;
45932;SDS011;51011;46.790;17.184;2022-08-21T15:46:36;2.70;;;1.60;;
45932;SDS011;51011;46.790;17.184;2022-08-21T15:49:02;2.70;;;1.48;;
45932;SDS011;51011;46.790;17.184;2022-08-21T15:51:28;1.67;;;1.50;;
45932;SDS011;51011;46.790;17.184;2022-08-21T15:53:54;1.50;;;1.40;;
45932;SDS011;51011;46.790;17.184;2022-08-21T15:58:49;3.05;;;1.55;;
45932;SDS011;51011;46.790;17.184;2022-08-21T16:01:16;1.98;;;1.73;;
45932;SDS011;51011;46.790;17.184;2022-08-21T16:03:42;2.10;;;1.50;;
45932;SDS011;51011;46.790;17.184;2022-08-21T16:06:09;2.30;;;1.50;;
45932;SDS011;51011;46.790;17.184;2022-08-21T16:08:34;1.52;;;1.42;;
45932;SDS011;51011;46.790;17.184;2022-08-21T16:11:00;3.88;;;1.60;;
45932;SDS011;51011;46.790;17.184;2022-08-21T16:13:27;3.03;;;1.50;;
45932;SDS011;51011;46.790;17.184;2022-08-21T16:15:54;2.22;;;1.60;;
45932;SDS011;51011;46.790;17.184;2022-08-21T16:18:20;2.40;;;1.60;;
45932;SDS011;51011;46.790;17.184;2022-08-21T16:20:47;2.40;;;1.90;;
45932;SDS011;51011;46.790;17.184;2022-08-21T16:23:16;2.13;;;1.92;;
45932;SDS011;51011;46.790;17.184;2022-08-21T16:25:45;2.70;;;1.55;;
45932;SDS011;51011;46.790;17.184;2022-08-21T16:28:15;2.78;;;1.88;;
45932;SDS011;51011;46.790;17.184;2022-08-21T16:30:43;2.65;;;1.77;;
45932;SDS011;51011;46.790;17.184;2022-08-21T16:33:11;2.42;;;1.50;;
45932;SDS011;51011;46.790;17.184;2022-08-21T16:35:50;1.85;;;1.67;;
45932;SDS011;51011;46.790;17.184;2022-08-21T16:38:15;2.85;;;1.80;;
45932;SDS011;51011;46.790;17.184;2022-08-21T16:40:41;2.17;;;1.58;;
45932;SDS011;51011;46.790;17.184;2022-08-21T16:43:07;2.72;;;2.00;;
45932;SDS011;51011;46.790;17.184;2022-08-21T16:45:33;2.17;;;1.50;;
45932;SDS011;51011;46.790;17.184;2022-08-21T16:47:59;3.10;;;2.13;;
45932;SDS011;51011;46.790;17.184;2022-08-21T16:50:25;3.08;;;1.98;;
45932;SDS011;51011;46.790;17.184;2022-08-21T16:52:50;2.80;;;2.00;;
45932;SDS011;51011;46.790;17.184;2022-08-21T16:55:16;3.45;;;1.90;;
45932;SDS011;51011;46.790;17.184;2022-08-21T16:57:42;2.70;;;2.17;;
45932;SDS011;51011;46.790;17.184;2022-08-21T17:00:08;2.80;;;2.20;;
45932;SDS011;51011;46.790;17.184;2022-08-21T17:02:39;2.53;;;2.05;;
45932;SDS011;51011;46.790;17.184;2022-08-21T17:05:07;2.38;;;1.90;;
45932;SDS011;51011;46.790;17.184;2022-08-21T17:07:33;3.40;;;2.20;;
45932;SDS011;51011;46.790;17.184;2022-08-21T17:09:59;2.70;;;2.30;;
45932;SDS011;51011;46.790;17.184;2022-08-21T17:12:24;4.03;;;2.50;;
45932;SDS011;51011;46.790;17.184;2022-08-21T17:14:50;3.50;;;2.55;;
45932;SDS011;51011;46.790;17.184;2022-08-21T17:17:16;3.78;;;2.33;;
45932;SDS011;51011;46.790;17.184;2022-08-21T17:19:42;4.70;;;2.50;;
45932;SDS011;51011;46.790;17.184;2022-08-21T17:22:08;4.47;;;3.08;;
45932;SDS011;51011;46.790;17.184;2022-08-21T17:24:34;3.50;;;2.80;;
45932;SDS011;51011;46.790;17.184;2022-08-21T17:27:01;4.35;;;2.83;;
45932;SDS011;51011;46.790;17.184;2022-08-21T17:29:30;3.42;;;2.70;;
45932;SDS011;51011;46.790;17.184;2022-08-21T17:31:59;3.90;;;2.80;;
45932;SDS011;51011;46.790;17.184;2022-08-21T17:34:24;3.13;;;2.40;;
45932;SDS011;51011;46.790;17.184;2022-08-21T17:36:50;3.00;;;2.45;;
45932;SDS011;51011;46.790;17.184;2022-08-21T17:39:16;3.88;;;2.90;;
45932;SDS011;51011;46.790;17.184;2022-08-21T17:41:42;3.78;;;2.90;;
45932;SDS011;51011;46.790;17.184;2022-08-21T17:44:08;3.58;;;2.60;;
45932;SDS011;51011;46.790;17.184;2022-08-21T17:46:36;4.95;;;2.40;;
45932;SDS011;51011;46.790;17.184;2022-08-21T17:49:03;3.28;;;2.55;;
45932;SDS011;51011;46.790;17.184;2022-08-21T17:51:32;4.50;;;2.80;;
45932;SDS011;51011;46.790;17.184;2022-08-21T17:53:58;3.95;;;2.83;;
45932;SDS011;51011;46.790;17.184;2022-08-21T17:56:25;3.78;;;2.78;;
45932;SDS011;51011;46.790;17.184;2022-08-21T17:58:54;3.05;;;2.60;;
45932;SDS011;51011;46.790;17.184;2022-08-21T18:01:22;3.72;;;2.58;;
45932;SDS011;51011;46.790;17.184;2022-08-21T18:03:50;3.50;;;2.60;;
45932;SDS011;51011;46.790;17.184;2022-08-21T18:06:15;3.65;;;2.60;;
45932;SDS011;51011;46.790;17.184;2022-08-21T18:08:41;5.07;;;3.03;;
45932;SDS011;51011;46.790;17.184;2022-08-21T18:11:07;2.97;;;2.55;;
45932;SDS011;51011;46.790;17.184;2022-08-21T18:13:34;3.70;;;2.63;;
45932;SDS011;51011;46.790;17.184;2022-08-21T18:16:01;5.35;;;2.55;;
45932;SDS011;51011;46.790;17.184;2022-08-21T18:18:28;3.00;;;2.47;;
45932;SDS011;51011;46.790;17.184;2022-08-21T18:20:55;3.42;;;2.58;;
45932;SDS011;51011;46.790;17.184;2022-08-21T18:23:20;3.65;;;2.80;;
45932;SDS011;51011;46.790;17.184;2022-08-21T18:25:52;5.30;;;2.95;;
45932;SDS011;51011;46.790;17.184;2022-08-21T18:28:20;4.47;;;2.70;;
45932;SDS011;51011;46.790;17.184;2022-08-21T18:30:47;7.00;;;2.92;;
45932;SDS011;51011;46.790;17.184;2022-08-21T18:33:13;3.25;;;2.20;;
45932;SDS011;51011;46.790;17.184;2022-08-21T18:35:39;3.25;;;2.15;;
45932;SDS011;51011;46.790;17.184;2022-08-21T18:38:06;3.30;;;2.55;;
45932;SDS011;51011;46.790;17.184;2022-08-21T18:40:33;4.57;;;2.45;;
45932;SDS011;51011;46.790;17.184;2022-08-21T18:43:02;3.55;;;2.40;;
45932;SDS011;51011;46.790;17.184;2022-08-21T18:45:31;3.28;;;2.33;;
45932;SDS011;51011;46.790;17.184;2022-08-21T18:47:58;3.67;;;2.50;;
45932;SDS011;51011;46.790;17.184;2022-08-21T18:50:26;3.47;;;2.20;;
45932;SDS011;51011;46.790;17.184;2022-08-21T18:52:56;5.30;;;2.50;;
45932;SDS011;51011;46.790;17.184;2022-08-21T18:55:23;4.35;;;2.67;;
45932;SDS011;51011;46.790;17.184;2022-08-21T18:57:48;3.78;;;2.45;;
45932;SDS011;51011;46.790;17.184;2022-08-21T19:00:15;3.78;;;2.28;;
45932;SDS011;51011;46.790;17.184;2022-08-21T19:02:43;3.08;;;2.50;;
45932;SDS011;51011;46.790;17.184;2022-08-21T19:05:09;3.13;;;2.40;;
45932;SDS011;51011;46.790;17.184;2022-08-21T19:07:36;2.95;;;2.28;;
45932;SDS011;51011;46.790;17.184;2022-08-21T19:10:03;3.75;;;2.47;;
45932;SDS011;51011;46.790;17.184;2022-08-21T19:12:30;2.88;;;2.30;;
45932;SDS011;51011;46.790;17.184;2022-08-21T19:14:56;4.85;;;2.65;;
45932;SDS011;51011;46.790;17.184;2022-08-21T19:17:21;3.53;;;2.55;;
45932;SDS011;51011;46.790;17.184;2022-08-21T19:19:47;3.75;;;2.38;;
45932;SDS011;51011;46.790;17.184;2022-08-21T19:22:13;3.22;;;2.22;;
45932;SDS011;51011;46.790;17.184;2022-08-21T19:24:39;4.43;;;2.88;;
45932;SDS011;51011;46.790;17.184;2022-08-21T19:27:06;4.50;;;2.92;;
45932;SDS011;51011;46.790;17.184;2022-08-21T19:29:31;3.17;;;2.72;;
45932;SDS011;51011;46.790;17.184;2022-08-21T19:31:58;4.40;;;2.70;;
45932;SDS011;51011;46.790;17.184;2022-08-21T19:34:25;5.32;;;3.40;;
45932;SDS011;51011;46.790;17.184;2022-08-21T19:36:52;4.57;;;2.70;;
45932;SDS011;51011;46.790;17.184;2022-08-21T19:39:21;4.75;;;3.20;;
45932;SDS011;51011;46.790;17.184;2022-08-21T19:41:48;4.13;;;3.10;;
45932;SDS011;51011;46.790;17.184;2022-08-21T19:44:18;3.40;;;2.80;;
45932;SDS011;51011;46.790;17.184;2022-08-21T19:46:45;4.82;;;3.15;;
45932;SDS011;51011;46.790;17.184;2022-08-21T19:49:17;5.38;;;3.60;;
45932;SDS011;51011;46.790;17.184;2022-08-21T19:51:44;3.97;;;3.35;;
45932;SDS011;51011;46.790;17.184;2022-08-21T19:54:17;5.80;;;3.80;;
45932;SDS011;51011;46.790;17.184;2022-08-21T19:56:45;7.00;;;3.90;;
45932;SDS011;51011;46.790;17.184;2022-08-21T19:59:11;5.55;;;4.10;;
45932;SDS011;51011;46.790;17.184;2022-08-21T20:01:39;5.38;;;4.10;;
45932;SDS011;51011;46.790;17.184;2022-08-21T20:04:04;5.57;;;4.43;;
45932;SDS011;51011;46.790;17.184;2022-08-21T20:06:30;4.20;;;3.80;;
45932;SDS011;51011;46.790;17.184;2022-08-21T20:08:56;4.80;;;4.30;;
45932;SDS011;51011;46.790;17.184;2022-08-21T20:11:26;6.95;;;4.30;;
45932;SDS011;51011;46.790;17.184;2022-08-21T20:13:54;6.97;;;4.97;;
45932;SDS011;51011;46.790;17.184;2022-08-21T20:16:20;5.28;;;4.50;;
45932;SDS011;51011;46.790;17.184;2022-08-21T20:18:46;7.50;;;4.82;;
45932;SDS011;51011;46.790;17.184;2022-08-21T20:21:13;5.35;;;4.70;;
45932;SDS011;51011;46.790;17.184;2022-08-21T20:23:38;7.35;;;4.60;;
45932;SDS011;51011;46.790;17.184;2022-08-21T20:26:04;6.50;;;4.22;;
45932;SDS011;51011;46.790;17.184;2022-08-21T20:28:30;5.60;;;4.53;;
45932;SDS011;51011;46.790;17.184;2022-08-21T20:30:55;5.93;;;4.40;;
45932;SDS011;51011;46.790;17.184;2022-08-21T20:33:21;6.10;;;4.68;;
45932;SDS011;51011;46.790;17.184;2022-08-21T20:35:47;5.38;;;4.30;;